sensor_id;sensor_type;location;lat;lon;timestamp;pressure;altitude;pressure_sealevel;temperature;humidity
66090;BME280;53113;45.602;11.904;2022-11-20T00:01:08;100612.41;;;9.34;64.46
66090;BME280;53113;45.602;11.904;2022-11-20T00:03:35;100614.05;;;9.31;64.54
66090;BME280;53113;45.602;11.904;2022-11-20T00:06:02;100612.16;;;9.31;64.48
66090;BME280;53113;45.602;11.904;2022-11-20T00:08:28;100609.67;;;9.33;64.54
66090;BME280;53113;45.602;11.904;2022-11-20T00:10:54;100607.23;;;9.38;64.53
66090;BME280;53113;45.602;11.904;2022-11-20T00:13:19;100605.89;;;9.42;64.55
66090;BME280;53113;45.602;11.904;2022-11-20T00:15:45;100596.78;;;9.43;64.42
66090;BME280;53113;45.602;11.904;2022-11-20T00:18:11;100599.74;;;9.44;64.53
66090;BME280;53113;45.602;11.904;2022-11-20T00:20:37;100598.07;;;9.43;64.52
66090;BME280;53113;45.602;11.904;2022-11-20T00:23:02;100602.06;;;9.41;64.57
66090;BME280;53113;45.602;11.904;2022-11-20T00:25:28;100603.24;;;9.40;64.63
66090;BME280;53113;45.602;11.904;2022-11-20T00:27:54;100606.84;;;9.36;64.57
66090;BME280;53113;45.602;11.904;2022-11-20T00:30:20;100611.27;;;9.33;64.58
66090;BME280;53113;45.602;11.904;2022-11-20T00:32:45;100609.38;;;9.30;64.54
66090;BME280;53113;45.602;11.904;2022-11-20T00:35:11;100609.08;;;9.27;64.60
66090;BME280;53113;45.602;11.904;2022-11-20T00:37:37;100612.89;;;9.23;64.61
66090;BME280;53113;45.602;11.904;2022-11-20T00:40:04;100608.21;;;9.20;64.62
66090;BME280;53113;45.602;11.904;2022-11-20T00:42:30;100613.23;;;9.16;64.70
66090;BME280;53113;45.602;11.904;2022-11-20T00:44:58;100615.49;;;9.11;64.67
66090;BME280;53113;45.602;11.904;2022-11-20T00:47:24;100613.34;;;9.07;64.71
66090;BME280;53113;45.602;11.904;2022-11-20T00:49:49;100616.84;;;9.02;64.71
66090;BME280;53113;45.602;11.904;2022-11-20T00:52:15;100614.51;;;8.98;64.83
66090;BME280;53113;45.602;11.904;2022-11-20T00:54:41;100614.84;;;8.93;64.79
66090;BME280;53113;45.602;11.904;2022-11-20T00:57:07;100617.59;;;8.89;64.98
66090;BME280;53113;45.602;11.904;2022-11-20T00:59:32;100620.70;;;8.88;64.92
66090;BME280;53113;45.602;11.904;2022-11-20T01:01:58;100623.98;;;8.89;65.00
66090;BME280;53113;45.602;11.904;2022-11-20T01:04:24;100625.13;;;8.92;64.98
66090;BME280;53113;45.602;11.904;2022-11-20T01:06:50;100627.64;;;8.94;65.02
66090;BME280;53113;45.602;11.904;2022-11-20T01:09:15;100628.70;;;8.95;64.89
66090;BME280;53113;45.602;11.904;2022-11-20T01:11:43;100633.55;;;8.93;64.93
66090;BME280;53113;45.602;11.904;2022-11-20T01:14:16;100637.06;;;8.91;64.87
66090;BME280;53113;45.602;11.904;2022-11-20T01:16:45;100642.06;;;8.88;64.84
66090;BME280;53113;45.602;11.904;2022-11-20T01:19:15;100644.68;;;8.83;64.83
66090;BME280;53113;45.602;11.904;2022-11-20T01:21:43;100646.06;;;8.78;64.81
66090;BME280;53113;45.602;11.904;2022-11-20T01:24:15;100648.89;;;8.73;64.74
66090;BME280;53113;45.602;11.904;2022-11-20T01:26:44;100648.48;;;8.66;64.72
66090;BME280;53113;45.602;11.904;2022-11-20T01:29:14;100655.23;;;8.61;64.68
66090;BME280;53113;45.602;11.904;2022-11-20T01:31:41;100656.21;;;8.54;64.81
66090;BME280;53113;45.602;11.904;2022-11-20T01:34:10;100657.43;;;8.46;64.74
66090;BME280;53113;45.602;11.904;2022-11-20T01:36:38;100653.90;;;8.39;64.72
66090;BME280;53113;45.602;11.904;2022-11-20T01:39:13;100654.00;;;8.32;64.69
66090;BME280;53113;45.602;11.904;2022-11-20T01:41:39;100660.54;;;8.23;64.88
66090;BME280;53113;45.602;11.904;2022-11-20T01:45:00;100669.14;;;8.16;64.80
66090;BME280;53113;45.602;11.904;2022-11-20T01:52:39;100670.95;;;7.94;64.92
66090;BME280;53113;45.602;11.904;2022-11-20T01:55:11;100672.28;;;7.93;65.01
66090;BME280;53113;45.602;11.904;2022-11-20T01:57:38;100675.78;;;7.93;64.87
66090;BME280;53113;45.602;11.904;2022-11-20T02:00:11;100675.84;;;7.92;64.95
66090;BME280;53113;45.602;11.904;2022-11-20T02:02:39;100678.27;;;7.90;64.81
66090;BME280;53113;45.602;11.904;2022-11-20T02:05:23;100676.59;;;7.86;65.01
66090;BME280;53113;45.602;11.904;2022-11-20T02:07:50;100675.31;;;7.81;65.09
66090;BME280;53113;45.602;11.904;2022-11-20T02:10:16;100677.91;;;7.76;65.20
66090;BME280;53113;45.602;11.904;2022-11-20T02:12:42;100672.92;;;7.72;65.19
66090;BME280;53113;45.602;11.904;2022-11-20T02:15:27;100677.03;;;7.65;65.30
66090;BME280;53113;45.602;11.904;2022-11-20T02:17:53;100676.34;;;7.60;65.36
66090;BME280;53113;45.602;11.904;2022-11-20T02:20:19;100680.20;;;7.55;65.39
66090;BME280;53113;45.602;11.904;2022-11-20T02:23:12;100677.17;;;7.50;65.43
66090;BME280;53113;45.602;11.904;2022-11-20T02:25:39;100677.02;;;7.43;65.50
66090;BME280;53113;45.602;11.904;2022-11-20T02:28:06;100676.33;;;7.38;65.66
66090;BME280;53113;45.602;11.904;2022-11-20T02:30:32;100675.08;;;7.33;65.70
66090;BME280;53113;45.602;11.904;2022-11-20T02:32:58;100682.25;;;7.28;65.84
66090;BME280;53113;45.602;11.904;2022-11-20T02:37:52;100686.85;;;7.24;66.14
66090;BME280;53113;45.602;11.904;2022-11-20T02:40:19;100685.69;;;7.26;66.37
66090;BME280;53113;45.602;11.904;2022-11-20T02:42:44;100688.95;;;7.28;66.33
66090;BME280;53113;45.602;11.904;2022-11-20T02:45:10;100686.88;;;7.27;66.57
66090;BME280;53113;45.602;11.904;2022-11-20T02:47:37;100683.89;;;7.27;66.53
66090;BME280;53113;45.602;11.904;2022-11-20T02:50:04;100682.95;;;7.25;66.60
66090;BME280;53113;45.602;11.904;2022-11-20T02:52:31;100682.33;;;7.23;66.78
66090;BME280;53113;45.602;11.904;2022-11-20T02:54:57;100681.98;;;7.20;66.79
66090;BME280;53113;45.602;11.904;2022-11-20T02:57:23;100682.84;;;7.18;66.81
66090;BME280;53113;45.602;11.904;2022-11-20T02:59:48;100681.84;;;7.14;66.81
66090;BME280;53113;45.602;11.904;2022-11-20T03:02:14;100679.29;;;7.10;66.95
66090;BME280;53113;45.602;11.904;2022-11-20T03:04:40;100683.20;;;7.07;67.10
66090;BME280;53113;45.602;11.904;2022-11-20T03:07:05;100685.23;;;7.02;67.13
66090;BME280;53113;45.602;11.904;2022-11-20T03:09:32;100681.24;;;6.98;67.13
66090;BME280;53113;45.602;11.904;2022-11-20T03:11:58;100682.41;;;6.97;67.31
66090;BME280;53113;45.602;11.904;2022-11-20T03:14:24;100682.88;;;6.98;67.19
66090;BME280;53113;45.602;11.904;2022-11-20T03:16:50;100686.36;;;7.01;67.05
66090;BME280;53113;45.602;11.904;2022-11-20T03:19:15;100686.77;;;7.03;67.05
66090;BME280;53113;45.602;11.904;2022-11-20T03:21:41;100690.33;;;7.02;67.00
66090;BME280;53113;45.602;11.904;2022-11-20T03:24:07;100697.18;;;7.00;66.94
66090;BME280;53113;45.602;11.904;2022-11-20T03:26:33;100696.02;;;6.96;67.03
66090;BME280;53113;45.602;11.904;2022-11-20T03:29:01;100697.85;;;6.92;67.05
66090;BME280;53113;45.602;11.904;2022-11-20T03:31:33;100697.21;;;6.88;66.99
66090;BME280;53113;45.602;11.904;2022-11-20T03:34:00;100698.36;;;6.83;66.91
66090;BME280;53113;45.602;11.904;2022-11-20T03:36:27;100697.63;;;6.77;67.02
66090;BME280;53113;45.602;11.904;2022-11-20T03:38:54;100701.46;;;6.73;67.02
66090;BME280;53113;45.602;11.904;2022-11-20T03:41:26;100705.80;;;6.68;67.03
66090;BME280;53113;45.602;11.904;2022-11-20T03:43:57;100709.15;;;6.62;67.09
66090;BME280;53113;45.602;11.904;2022-11-20T03:46:24;100715.14;;;6.56;67.13
66090;BME280;53113;45.602;11.904;2022-11-20T03:48:50;100721.97;;;6.50;67.10
66090;BME280;53113;45.602;11.904;2022-11-20T03:51:18;100723.16;;;6.45;67.04
66090;BME280;53113;45.602;11.904;2022-11-20T03:53:46;100724.95;;;6.41;67.01
66090;BME280;53113;45.602;11.904;2022-11-20T03:56:13;100728.73;;;6.40;66.96
66090;BME280;53113;45.602;11.904;2022-11-20T03:58:40;100732.61;;;6.40;66.86
66090;BME280;53113;45.602;11.904;2022-11-20T04:01:12;100729.12;;;6.39;66.95
66090;BME280;53113;45.602;11.904;2022-11-20T04:03:40;100728.55;;;6.37;66.92
66090;BME280;53113;45.602;11.904;2022-11-20T04:06:12;100727.11;;;6.34;66.92
66090;BME280;53113;45.602;11.904;2022-11-20T04:08:40;100729.07;;;6.31;66.98
66090;BME280;53113;45.602;11.904;2022-11-20T04:11:21;100724.03;;;6.27;67.10
66090;BME280;53113;45.602;11.904;2022-11-20T04:13:53;100731.49;;;6.22;67.32
66090;BME280;53113;45.602;11.904;2022-11-20T04:16:20;100731.38;;;6.18;67.39
66090;BME280;53113;45.602;11.904;2022-11-20T04:18:47;100734.29;;;6.14;67.43
66090;BME280;53113;45.602;11.904;2022-11-20T04:21:12;100735.23;;;6.10;67.49
66090;BME280;53113;45.602;11.904;2022-11-20T04:23:38;100731.80;;;6.05;67.56
66090;BME280;53113;45.602;11.904;2022-11-20T04:26:07;100736.81;;;6.00;67.69
66090;BME280;53113;45.602;11.904;2022-11-20T04:28:34;100734.26;;;5.95;67.88
66090;BME280;53113;45.602;11.904;2022-11-20T04:33:36;100738.06;;;5.97;68.11
66090;BME280;53113;45.602;11.904;2022-11-20T04:36:16;100739.61;;;6.01;68.24
66090;BME280;53113;45.602;11.904;2022-11-20T04:38:42;100745.27;;;6.03;68.38
66090;BME280;53113;45.602;11.904;2022-11-20T04:41:14;100744.70;;;6.04;68.51
66090;BME280;53113;45.602;11.904;2022-11-20T04:43:40;100746.42;;;6.04;68.61
66090;BME280;53113;45.602;11.904;2022-11-20T04:46:06;100738.55;;;6.04;68.80
66090;BME280;53113;45.602;11.904;2022-11-20T04:48:31;100741.42;;;6.03;68.92
66090;BME280;53113;45.602;11.904;2022-11-20T04:50:57;100741.52;;;6.01;69.10
66090;BME280;53113;45.602;11.904;2022-11-20T04:53:24;100742.83;;;6.00;69.17
66090;BME280;53113;45.602;11.904;2022-11-20T04:55:49;100742.54;;;5.98;69.36
66090;BME280;53113;45.602;11.904;2022-11-20T04:58:15;100740.88;;;5.96;69.30
66090;BME280;53113;45.602;11.904;2022-11-20T05:00:41;100740.64;;;5.94;69.36
66090;BME280;53113;45.602;11.904;2022-11-20T05:03:07;100744.53;;;5.93;69.40
66090;BME280;53113;45.602;11.904;2022-11-20T05:05:35;100740.92;;;5.96;69.43
66090;BME280;53113;45.602;11.904;2022-11-20T05:08:01;100743.20;;;5.99;69.42
66090;BME280;53113;45.602;11.904;2022-11-20T05:10:27;100742.38;;;6.01;69.50
66090;BME280;53113;45.602;11.904;2022-11-20T05:12:53;100744.60;;;6.02;69.45
66090;BME280;53113;45.602;11.904;2022-11-20T05:15:18;100740.57;;;6.02;69.67
66090;BME280;53113;45.602;11.904;2022-11-20T05:17:49;100749.20;;;6.02;69.69
66090;BME280;53113;45.602;11.904;2022-11-20T05:20:15;100750.14;;;6.01;69.80
66090;BME280;53113;45.602;11.904;2022-11-20T05:22:40;100751.23;;;6.00;69.81
66090;BME280;53113;45.602;11.904;2022-11-20T05:25:06;100750.59;;;5.99;69.70
66090;BME280;53113;45.602;11.904;2022-11-20T05:27:32;100751.10;;;5.96;69.87
66090;BME280;53113;45.602;11.904;2022-11-20T05:29:58;100751.55;;;5.93;69.86
66090;BME280;53113;45.602;11.904;2022-11-20T05:32:24;100751.64;;;5.92;69.91
66090;BME280;53113;45.602;11.904;2022-11-20T05:34:52;100755.11;;;5.93;69.97
66090;BME280;53113;45.602;11.904;2022-11-20T05:37:17;100752.84;;;5.96;69.85
66090;BME280;53113;45.602;11.904;2022-11-20T05:39:43;100751.29;;;6.02;69.85
66090;BME280;53113;45.602;11.904;2022-11-20T05:42:09;100750.07;;;6.05;69.78
66090;BME280;53113;45.602;11.904;2022-11-20T05:44:54;100755.64;;;6.09;69.87
66090;BME280;53113;45.602;11.904;2022-11-20T05:47:19;100757.03;;;6.09;69.85
66090;BME280;53113;45.602;11.904;2022-11-20T05:49:45;100761.37;;;6.10;69.80
66090;BME280;53113;45.602;11.904;2022-11-20T05:52:11;100759.45;;;6.10;69.75
66090;BME280;53113;45.602;11.904;2022-11-20T05:54:36;100755.38;;;6.08;69.79
66090;BME280;53113;45.602;11.904;2022-11-20T05:57:02;100761.60;;;6.06;69.81
66090;BME280;53113;45.602;11.904;2022-11-20T05:59:28;100759.60;;;6.04;69.82
66090;BME280;53113;45.602;11.904;2022-11-20T06:01:54;100760.80;;;6.02;69.98
66090;BME280;53113;45.602;11.904;2022-11-20T06:04:19;100759.54;;;5.99;70.09
66090;BME280;53113;45.602;11.904;2022-11-20T06:06:45;100763.88;;;5.97;70.03
66090;BME280;53113;45.602;11.904;2022-11-20T06:09:11;100761.02;;;5.97;70.03
66090;BME280;53113;45.602;11.904;2022-11-20T06:11:36;100763.27;;;6.02;70.06
66090;BME280;53113;45.602;11.904;2022-11-20T06:14:02;100769.64;;;6.07;69.93
66090;BME280;53113;45.602;11.904;2022-11-20T06:16:28;100765.59;;;6.10;69.87
66090;BME280;53113;45.602;11.904;2022-11-20T06:18:54;100767.79;;;6.12;69.78
66090;BME280;53113;45.602;11.904;2022-11-20T06:21:23;100766.45;;;6.11;69.86
66090;BME280;53113;45.602;11.904;2022-11-20T06:23:49;100767.42;;;6.09;69.89
66090;BME280;53113;45.602;11.904;2022-11-20T06:26:22;100772.86;;;6.09;69.83
66090;BME280;53113;45.602;11.904;2022-11-20T06:28:48;100770.09;;;6.05;69.84
66090;BME280;53113;45.602;11.904;2022-11-20T06:31:17;100776.36;;;6.03;69.97
66090;BME280;53113;45.602;11.904;2022-11-20T06:33:43;100777.41;;;6.00;69.92
66090;BME280;53113;45.602;11.904;2022-11-20T06:36:11;100779.86;;;5.97;69.91
66090;BME280;53113;45.602;11.904;2022-11-20T06:38:38;100781.56;;;5.94;69.96
66090;BME280;53113;45.602;11.904;2022-11-20T06:41:11;100787.10;;;5.92;69.96
66090;BME280;53113;45.602;11.904;2022-11-20T06:43:38;100792.46;;;5.91;69.99
66090;BME280;53113;45.602;11.904;2022-11-20T06:46:04;100799.66;;;5.91;69.96
66090;BME280;53113;45.602;11.904;2022-11-20T06:48:30;100801.04;;;5.95;69.95
66090;BME280;53113;45.602;11.904;2022-11-20T06:50:56;100802.52;;;6.00;69.90
66090;BME280;53113;45.602;11.904;2022-11-20T06:53:23;100806.34;;;6.05;69.90
66090;BME280;53113;45.602;11.904;2022-11-20T06:55:50;100807.27;;;6.07;69.87
66090;BME280;53113;45.602;11.904;2022-11-20T06:58:17;100808.77;;;6.08;69.92
66090;BME280;53113;45.602;11.904;2022-11-20T07:00:43;100816.96;;;6.09;69.94
66090;BME280;53113;45.602;11.904;2022-11-20T07:03:11;100819.56;;;6.10;69.97
66090;BME280;53113;45.602;11.904;2022-11-20T07:05:37;100826.39;;;6.11;69.84
66090;BME280;53113;45.602;11.904;2022-11-20T07:08:04;100827.25;;;6.11;69.89
66090;BME280;53113;45.602;11.904;2022-11-20T07:10:31;100835.84;;;6.11;69.82
66090;BME280;53113;45.602;11.904;2022-11-20T07:12:57;100840.23;;;6.11;69.86
66090;BME280;53113;45.602;11.904;2022-11-20T07:15:24;100840.61;;;6.11;69.74
66090;BME280;53113;45.602;11.904;2022-11-20T07:17:50;100845.20;;;6.10;69.71
66090;BME280;53113;45.602;11.904;2022-11-20T07:20:16;100848.22;;;6.10;69.66
66090;BME280;53113;45.602;11.904;2022-11-20T07:22:42;100855.34;;;6.09;69.72
66090;BME280;53113;45.602;11.904;2022-11-20T07:25:09;100858.61;;;6.10;69.73
66090;BME280;53113;45.602;11.904;2022-11-20T07:27:35;100862.02;;;6.15;69.72
66090;BME280;53113;45.602;11.904;2022-11-20T07:30:03;100861.48;;;6.21;69.62
66090;BME280;53113;45.602;11.904;2022-11-20T07:32:29;100860.30;;;6.26;69.50
66090;BME280;53113;45.602;11.904;2022-11-20T07:34:54;100864.83;;;6.30;69.52
66090;BME280;53113;45.602;11.904;2022-11-20T07:37:20;100867.15;;;6.33;69.48
66090;BME280;53113;45.602;11.904;2022-11-20T07:39:46;100869.14;;;6.35;69.52
66090;BME280;53113;45.602;11.904;2022-11-20T07:42:12;100874.52;;;6.36;69.52
66090;BME280;53113;45.602;11.904;2022-11-20T07:44:38;100876.00;;;6.39;69.45
66090;BME280;53113;45.602;11.904;2022-11-20T07:47:05;100878.38;;;6.40;69.39
66090;BME280;53113;45.602;11.904;2022-11-20T07:49:31;100875.30;;;6.42;69.39
66090;BME280;53113;45.602;11.904;2022-11-20T07:51:56;100876.30;;;6.43;69.45
66090;BME280;53113;45.602;11.904;2022-11-20T07:54:22;100881.84;;;6.44;69.48
66090;BME280;53113;45.602;11.904;2022-11-20T07:56:49;100887.49;;;6.47;69.63
66090;BME280;53113;45.602;11.904;2022-11-20T07:59:15;100887.74;;;6.49;69.62
66090;BME280;53113;45.602;11.904;2022-11-20T08:01:42;100887.64;;;6.54;69.71
66090;BME280;53113;45.602;11.904;2022-11-20T08:04:09;100889.48;;;6.62;69.69
66090;BME280;53113;45.602;11.904;2022-11-20T08:06:35;100887.44;;;6.69;69.71
66090;BME280;53113;45.602;11.904;2022-11-20T08:09:01;100891.09;;;6.76;69.68
66090;BME280;53113;45.602;11.904;2022-11-20T08:11:27;100895.48;;;6.83;69.82
66090;BME280;53113;45.602;11.904;2022-11-20T08:14:12;100901.45;;;6.89;69.90
66090;BME280;53113;45.602;11.904;2022-11-20T08:16:43;100904.36;;;6.94;69.95
66090;BME280;53113;45.602;11.904;2022-11-20T08:19:10;100908.46;;;6.99;70.02
66090;BME280;53113;45.602;11.904;2022-11-20T08:21:36;100910.41;;;7.05;70.11
66090;BME280;53113;45.602;11.904;2022-11-20T08:24:02;100916.39;;;7.11;70.24
66090;BME280;53113;45.602;11.904;2022-11-20T08:26:28;100918.89;;;7.20;70.51
66090;BME280;53113;45.602;11.904;2022-11-20T08:28:57;100920.33;;;7.34;70.67
66090;BME280;53113;45.602;11.904;2022-11-20T08:31:25;100923.83;;;7.55;70.73
66090;BME280;53113;45.602;11.904;2022-11-20T08:33:52;100924.14;;;7.79;70.98
66090;BME280;53113;45.602;11.904;2022-11-20T08:36:19;100922.60;;;8.04;70.97
66090;BME280;53113;45.602;11.904;2022-11-20T08:38:53;100926.88;;;8.32;71.14
66090;BME280;53113;45.602;11.904;2022-11-20T08:41:20;100924.21;;;8.63;71.44
66090;BME280;53113;45.602;11.904;2022-11-20T08:43:50;100929.03;;;8.98;71.62
66090;BME280;53113;45.602;11.904;2022-11-20T08:46:16;100930.77;;;9.35;71.50
66090;BME280;53113;45.602;11.904;2022-11-20T08:48:43;100933.16;;;9.78;71.15
66090;BME280;53113;45.602;11.904;2022-11-20T08:51:10;100935.39;;;10.25;70.98
66090;BME280;53113;45.602;11.904;2022-11-20T08:53:37;100935.27;;;10.76;70.56
66090;BME280;53113;45.602;11.904;2022-11-20T08:56:04;100933.77;;;11.30;70.07
66090;BME280;53113;45.602;11.904;2022-11-20T08:58:30;100936.30;;;11.85;69.33
66090;BME280;53113;45.602;11.904;2022-11-20T09:00:55;100935.02;;;12.40;68.51
66090;BME280;53113;45.602;11.904;2022-11-20T09:03:22;100938.15;;;12.95;67.74
66090;BME280;53113;45.602;11.904;2022-11-20T09:05:48;100944.13;;;13.52;66.87
66090;BME280;53113;45.602;11.904;2022-11-20T09:08:13;100938.02;;;14.06;65.69
66090;BME280;53113;45.602;11.904;2022-11-20T09:10:39;100935.15;;;14.59;64.92
66090;BME280;53113;45.602;11.904;2022-11-20T09:13:05;100934.10;;;15.12;64.01
66090;BME280;53113;45.602;11.904;2022-11-20T09:15:31;100937.59;;;15.64;62.87
66090;BME280;53113;45.602;11.904;2022-11-20T09:18:02;100940.14;;;16.14;61.93
66090;BME280;53113;45.602;11.904;2022-11-20T09:20:31;100942.39;;;16.63;60.94
66090;BME280;53113;45.602;11.904;2022-11-20T09:22:57;100944.81;;;17.11;60.04
66090;BME280;53113;45.602;11.904;2022-11-20T09:25:24;100944.86;;;17.56;58.82
66090;BME280;53113;45.602;11.904;2022-11-20T09:27:57;100943.16;;;18.00;57.76
66090;BME280;53113;45.602;11.904;2022-11-20T09:30:25;100940.44;;;18.43;56.76
66090;BME280;53113;45.602;11.904;2022-11-20T09:32:51;100942.29;;;18.81;55.54
66090;BME280;53113;45.602;11.904;2022-11-20T09:35:17;100943.63;;;19.15;54.45
66090;BME280;53113;45.602;11.904;2022-11-20T09:37:44;100945.53;;;19.47;53.48
66090;BME280;53113;45.602;11.904;2022-11-20T09:46:55;100944.95;;;20.54;50.86
66090;BME280;53113;45.602;11.904;2022-11-20T09:54:26;100949.76;;;21.51;47.92
66090;BME280;53113;45.602;11.904;2022-11-20T09:57:05;100946.48;;;21.73;47.16
66090;BME280;53113;45.602;11.904;2022-11-20T09:59:42;100945.64;;;21.93;46.58
66090;BME280;53113;45.602;11.904;2022-11-20T10:05:36;100934.81;;;22.25;44.73
66090;BME280;53113;45.602;11.904;2022-11-20T10:08:14;100935.09;;;22.32;44.02
66090;BME280;53113;45.602;11.904;2022-11-20T10:10:45;100933.95;;;22.37;43.51
66090;BME280;53113;45.602;11.904;2022-11-20T10:18:55;100933.77;;;22.63;42.31
66090;BME280;53113;45.602;11.904;2022-11-20T10:29:34;100925.93;;;22.94;40.62
66090;BME280;53113;45.602;11.904;2022-11-20T10:32:07;100925.84;;;22.90;40.26
66090;BME280;53113;45.602;11.904;2022-11-20T10:34:50;100925.73;;;22.87;40.17
66090;BME280;53113;45.602;11.904;2022-11-20T10:37:27;100922.06;;;22.79;39.89
66090;BME280;53113;45.602;11.904;2022-11-20T10:42:55;100915.48;;;22.68;39.95
66090;BME280;53113;45.602;11.904;2022-11-20T10:47:54;100915.40;;;22.63;39.92
66090;BME280;53113;45.602;11.904;2022-11-20T10:50:22;100917.90;;;22.63;40.10
66090;BME280;53113;45.602;11.904;2022-11-20T10:55:46;100916.02;;;22.71;40.14
66090;BME280;53113;45.602;11.904;2022-11-20T11:01:05;100911.23;;;22.81;39.57
66090;BME280;53113;45.602;11.904;2022-11-20T11:03:31;100912.55;;;22.88;39.58
66090;BME280;53113;45.602;11.904;2022-11-20T11:06:03;100910.48;;;22.94;39.52
66090;BME280;53113;45.602;11.904;2022-11-20T11:08:38;100906.79;;;23.03;39.65
66090;BME280;53113;45.602;11.904;2022-11-20T11:11:25;100904.67;;;23.15;39.67
66090;BME280;53113;45.602;11.904;2022-11-20T11:13:52;100904.86;;;23.33;39.56
66090;BME280;53113;45.602;11.904;2022-11-20T11:16:23;100907.84;;;23.49;39.42
66090;BME280;53113;45.602;11.904;2022-11-20T11:18:51;100904.67;;;23.68;39.42
66090;BME280;53113;45.602;11.904;2022-11-20T11:21:23;100903.48;;;23.84;38.71
66090;BME280;53113;45.602;11.904;2022-11-20T11:24:02;100900.98;;;23.98;38.17
66090;BME280;53113;45.602;11.904;2022-11-20T11:26:28;100897.95;;;24.10;37.95
66090;BME280;53113;45.602;11.904;2022-11-20T11:28:58;100896.02;;;24.26;38.08
66090;BME280;53113;45.602;11.904;2022-11-20T11:31:30;100891.47;;;24.44;37.84
66090;BME280;53113;45.602;11.904;2022-11-20T11:34:16;100886.79;;;24.66;37.74
66090;BME280;53113;45.602;11.904;2022-11-20T11:36:55;100887.04;;;24.90;37.58
66090;BME280;53113;45.602;11.904;2022-11-20T11:39:23;100882.35;;;25.11;37.02
66090;BME280;53113;45.602;11.904;2022-11-20T11:41:49;100884.97;;;25.30;36.63
66090;BME280;53113;45.602;11.904;2022-11-20T11:44:21;100883.41;;;25.46;36.42
66090;BME280;53113;45.602;11.904;2022-11-20T11:47:15;100880.30;;;25.64;36.02
66090;BME280;53113;45.602;11.904;2022-11-20T11:49:44;100875.02;;;25.79;35.69
66090;BME280;53113;45.602;11.904;2022-11-20T11:52:21;100872.02;;;25.93;35.39
66090;BME280;53113;45.602;11.904;2022-11-20T11:54:55;100865.22;;;26.06;34.99
66090;BME280;53113;45.602;11.904;2022-11-20T12:00:12;100862.77;;;26.22;34.18
66090;BME280;53113;45.602;11.904;2022-11-20T12:02:57;100857.31;;;26.26;33.73
66090;BME280;53113;45.602;11.904;2022-11-20T12:05:36;100857.04;;;26.32;33.81
66090;BME280;53113;45.602;11.904;2022-11-20T12:11:41;100855.98;;;26.51;33.56
66090;BME280;53113;45.602;11.904;2022-11-20T12:14:45;100851.18;;;26.64;33.39
66090;BME280;53113;45.602;11.904;2022-11-20T12:17:13;100854.67;;;26.74;32.91
66090;BME280;53113;45.602;11.904;2022-11-20T12:19:40;100850.39;;;26.77;32.60
66090;BME280;53113;45.602;11.904;2022-11-20T12:24:42;100849.44;;;26.63;32.17
66090;BME280;53113;45.602;11.904;2022-11-20T12:35:54;100859.87;;;25.70;31.92
66090;BME280;53113;45.602;11.904;2022-11-20T12:38:45;100856.94;;;25.45;31.81
66090;BME280;53113;45.602;11.904;2022-11-20T12:41:27;100850.52;;;25.24;32.30
66090;BME280;53113;45.602;11.904;2022-11-20T12:48:03;100837.48;;;24.92;32.45
66090;BME280;53113;45.602;11.904;2022-11-20T12:56:05;100837.00;;;24.69;32.24
66090;BME280;53113;45.602;11.904;2022-11-20T13:07:13;100836.65;;;25.13;32.34
66090;BME280;53113;45.602;11.904;2022-11-20T13:09:46;100836.17;;;25.26;32.40
66090;BME280;53113;45.602;11.904;2022-11-20T13:15:04;100829.70;;;25.57;32.41
66090;BME280;53113;45.602;11.904;2022-11-20T13:17:57;100820.45;;;25.73;32.18
66090;BME280;53113;45.602;11.904;2022-11-20T13:20:25;100814.02;;;25.89;31.89
66090;BME280;53113;45.602;11.904;2022-11-20T13:22:53;100812.48;;;25.99;31.69
66090;BME280;53113;45.602;11.904;2022-11-20T13:25:27;100811.56;;;26.05;31.38
66090;BME280;53113;45.602;11.904;2022-11-20T13:27:56;100806.55;;;26.11;31.33
66090;BME280;53113;45.602;11.904;2022-11-20T13:30:25;100808.21;;;26.16;31.27
66090;BME280;53113;45.602;11.904;2022-11-20T13:32:58;100811.71;;;26.21;30.99
66090;BME280;53113;45.602;11.904;2022-11-20T13:35:33;100808.59;;;26.22;30.71
66090;BME280;53113;45.602;11.904;2022-11-20T13:40:31;100807.44;;;26.27;30.80
66090;BME280;53113;45.602;11.904;2022-11-20T13:46:05;100808.04;;;26.25;30.62
66090;BME280;53113;45.602;11.904;2022-11-20T14:00:15;100798.42;;;25.67;30.29
66090;BME280;53113;45.602;11.904;2022-11-20T14:02:43;100804.30;;;25.55;30.87
66090;BME280;53113;45.602;11.904;2022-11-20T14:05:23;100800.82;;;25.47;31.00
66090;BME280;53113;45.602;11.904;2022-11-20T14:07:50;100801.12;;;25.41;30.95
66090;BME280;53113;45.602;11.904;2022-11-20T14:10:25;100798.79;;;25.31;30.91
66090;BME280;53113;45.602;11.904;2022-11-20T14:12:51;100799.97;;;25.26;31.26
66090;BME280;53113;45.602;11.904;2022-11-20T14:15:30;100797.16;;;25.24;31.55
66090;BME280;53113;45.602;11.904;2022-11-20T14:17:57;100796.88;;;25.25;31.79
66090;BME280;53113;45.602;11.904;2022-11-20T14:20:28;100794.33;;;25.27;31.90
66090;BME280;53113;45.602;11.904;2022-11-20T14:22:56;100797.88;;;25.29;31.69
66090;BME280;53113;45.602;11.904;2022-11-20T14:25:25;100795.41;;;25.26;31.46
66090;BME280;53113;45.602;11.904;2022-11-20T14:27:58;100797.52;;;25.21;31.35
66090;BME280;53113;45.602;11.904;2022-11-20T14:30:27;100795.33;;;25.16;31.46
66090;BME280;53113;45.602;11.904;2022-11-20T14:32:56;100797.29;;;25.11;31.47
66090;BME280;53113;45.602;11.904;2022-11-20T14:35:30;100798.83;;;25.05;31.34
66090;BME280;53113;45.602;11.904;2022-11-20T14:38:01;100800.92;;;24.96;31.51
66090;BME280;53113;45.602;11.904;2022-11-20T14:40:34;100799.17;;;24.86;31.63
66090;BME280;53113;45.602;11.904;2022-11-20T14:43:15;100796.75;;;24.75;31.50